Time;durP1;ratioP1;P1;durP2;ratioP2;P2;SDS_P1;SDS_P2;PMS_P1;PMS_P2;Temp;Humidity;BMP_temperature;BMP_pressure;BME280_temperature;BME280_humidity;BME280_pressure;Samples;Min_cycle;Max_cycle;Signal;HPM_P1;HPM_P2
2023/05/23 00:01:06;;;;;;;17.35;9.75;;;16.60;99.90;;;;;;5013430;28;20057;-67
2023/05/23 00:03:32;;;;;;;16.70;10.43;;;16.60;99.90;;;;;;5013200;28;20521;-68
2023/05/23 00:05:59;;;;;;;20.67;10.23;;;16.60;99.90;;;;;;5012964;28;20041;-67
2023/05/23 00:08:25;;;;;;;;;;;16.60;99.90;;;;;;5013501;28;20121;-68
2023/05/23 00:10:51;;;;;;;17.58;9.55;;;16.50;99.90;;;;;;5013335;28;19937;-67
2023/05/23 00:13:17;;;;;;;17.90;10.27;;;16.50;99.90;;;;;;5013175;28;20129;-68
2023/05/23 00:15:44;;;;;;;21.27;10.13;;;16.50;99.90;;;;;;5013358;28;20030;-68
2023/05/23 00:18:10;;;;;;;19.02;10.60;;;16.50;99.90;;;;;;5012807;28;20113;-66
2023/05/23 00:20:41;;;;;;;20.73;10.23;;;16.60;99.90;;;;;;5012843;28;20045;-68
2023/05/23 00:23:19;;;;;;;22.08;10.40;;;16.50;99.90;;;;;;5013006;28;20027;-68
2023/05/23 00:25:51;;;;;;;19.15;9.77;;;16.60;99.90;;;;;;5011436;28;20037;-67
2023/05/23 00:28:18;;;;;;;17.65;10.00;;;16.60;99.90;;;;;;5013344;28;20030;-68
2023/05/23 00:30:44;;;;;;;22.55;10.20;;;16.50;99.90;;;;;;5012764;28;20037;-68
2023/05/23 00:33:13;;;;;;;20.00;10.05;;;16.60;99.90;;;;;;5012474;28;20048;-64
2023/05/23 00:35:42;;;;;;;19.20;11.05;;;16.50;99.90;;;;;;5012884;28;20021;-67
2023/05/23 00:38:10;;;;;;;18.15;10.02;;;16.50;99.90;;;;;;5012233;28;20033;-67
2023/05/23 00:40:36;;;;;;;16.58;9.23;;;16.50;99.90;;;;;;5012145;28;20415;-68
2023/05/23 00:43:02;;;;;;;19.55;9.82;;;16.50;99.90;;;;;;5012774;28;20168;-67
2023/05/23 00:45:28;;;;;;;19.25;10.15;;;16.40;99.90;;;;;;5012919;28;20124;-67
2023/05/23 00:47:54;;;;;;;17.25;10.60;;;16.50;99.90;;;;;;5012535;28;20036;-66
2023/05/23 00:50:21;;;;;;;20.20;10.48;;;16.40;99.90;;;;;;5012323;28;20161;-68
2023/05/23 00:52:48;;;;;;;22.70;10.27;;;16.40;99.90;;;;;;5012734;28;20044;-68
2023/05/23 00:55:15;;;;;;;18.75;9.77;;;16.40;99.90;;;;;;5012933;28;20120;-66
2023/05/23 00:57:43;;;;;;;;;;;16.40;99.90;;;;;;5012834;28;20077;-67
2023/05/23 01:00:12;;;;;;;19.42;9.88;;;16.40;99.90;;;;;;5012552;28;19917;-67
2023/05/23 01:02:43;;;;;;;18.85;8.95;;;16.40;99.90;;;;;;4994920;28;20405;-67
2023/05/23 01:05:13;;;;;;;17.58;9.88;;;16.40;99.90;;;;;;5012463;28;20037;-67
2023/05/23 01:07:40;;;;;;;18.55;9.93;;;16.40;99.90;;;;;;5011880;28;20491;-67
2023/05/23 01:10:08;;;;;;;18.00;8.27;;;16.40;99.90;;;;;;5012055;28;20018;-67
2023/05/23 01:12:56;;;;;;;15.73;8.63;;;16.40;99.90;;;;;;5012035;28;20029;-67
2023/05/23 01:15:30;;;;;;;16.77;9.45;;;16.40;99.90;;;;;;5012362;28;20443;-68
2023/05/23 01:18:23;;;;;;;14.27;9.10;;;16.40;99.90;;;;;;5012094;28;20022;-66
2023/05/23 01:20:51;;;;;;;16.05;9.77;;;16.50;99.90;;;;;;5011984;28;20033;-67
2023/05/23 01:23:39;;;;;;;16.25;9.48;;;16.40;99.90;;;;;;5012195;28;20072;-67
2023/05/23 01:26:40;;;;;;;15.57;8.95;;;16.40;99.90;;;;;;5012236;28;20113;-68
2023/05/23 01:29:25;;;;;;;17.77;9.52;;;16.40;99.90;;;;;;4994138;28;20488;-67
2023/05/23 01:31:58;;;;;;;13.67;8.37;;;16.40;99.90;;;;;;4992642;28;20026;-68
2023/05/23 01:34:24;;;;;;;18.33;8.32;;;16.40;99.90;;;;;;4975154;28;20121;-67
2023/05/23 01:36:56;;;;;;;16.48;7.53;;;16.40;99.90;;;;;;4974358;28;20097;-67
2023/05/23 01:39:23;;;;;;;20.17;7.75;;;16.40;99.90;;;;;;4991867;28;20030;-68
2023/05/23 01:41:50;;;;;;;15.75;7.78;;;16.30;99.90;;;;;;4992115;28;20026;-67
2023/05/23 01:44:17;;;;;;;15.25;8.35;;;16.30;99.90;;;;;;4992356;28;20040;-68
2023/05/23 01:46:45;;;;;;;16.80;8.35;;;16.40;99.90;;;;;;5008881;28;20033;-66
2023/05/23 01:49:14;;;;;;;20.20;8.50;;;16.40;99.90;;;;;;5011401;28;20026;-67
2023/05/23 01:51:41;;;;;;;14.43;8.77;;;16.40;99.90;;;;;;5011220;28;20108;-66
2023/05/23 01:54:07;;;;;;;17.65;8.73;;;16.40;99.90;;;;;;5011420;28;20038;-67
2023/05/23 01:56:34;;;;;;;17.30;8.77;;;16.30;99.90;;;;;;5011343;28;20026;-68
2023/05/23 01:59:00;;;;;;;20.83;8.82;;;16.30;99.90;;;;;;5011578;28;20124;-69
2023/05/23 02:01:26;;;;;;;;;;;16.20;99.90;;;;;;5011738;28;20097;-67
2023/05/23 02:03:52;;;;;;;14.95;8.43;;;16.20;99.90;;;;;;5011819;28;20323;-67
2023/05/23 02:06:18;;;;;;;21.93;9.37;;;16.10;99.90;;;;;;5011104;28;20096;-68
2023/05/23 02:08:44;;;;;;;14.67;9.33;;;16.20;99.90;;;;;;5011228;28;20315;-67
2023/05/23 02:11:10;;;;;;;17.60;9.93;;;16.10;99.90;;;;;;5011678;28;20268;-68
2023/05/23 02:13:37;;;;;;;18.40;8.55;;;16.00;99.90;;;;;;5011311;28;20192;-68
2023/05/23 02:16:03;;;;;;;16.55;8.32;;;16.00;99.90;;;;;;5011196;28;20030;-68
2023/05/23 02:18:29;;;;;;;18.33;8.98;;;15.90;99.90;;;;;;5010998;28;20343;-68
2023/05/23 02:20:55;;;;;;;14.07;7.35;;;15.80;99.90;;;;;;5011026;28;20450;-67
2023/05/23 02:23:22;;;;;;;16.73;8.68;;;15.80;99.90;;;;;;5011323;28;20054;-67
2023/05/23 02:25:48;;;;;;;13.55;8.65;;;15.70;99.90;;;;;;5011464;28;20026;-67
2023/05/23 02:28:14;;;;;;;15.77;8.70;;;15.70;99.90;;;;;;5011312;28;20025;-68
2023/05/23 02:30:40;;;;;;;17.70;9.33;;;15.70;99.90;;;;;;5011143;28;20620;-68
2023/05/23 02:33:07;;;;;;;17.13;9.60;;;15.70;99.90;;;;;;5011317;28;20842;-64
2023/05/23 02:35:33;;;;;;;;;;;15.70;99.90;;;;;;5011569;28;20029;-67
2023/05/23 02:37:59;;;;;;;13.77;8.25;;;15.80;99.90;;;;;;5010736;28;19913;-69
2023/05/23 02:40:25;;;;;;;14.02;9.02;;;15.80;99.90;;;;;;5010302;28;20026;-68
2023/05/23 02:42:51;;;;;;;12.57;8.77;;;15.80;99.90;;;;;;5010224;28;20038;-68
2023/05/23 02:45:17;;;;;;;18.38;9.25;;;15.90;99.90;;;;;;5009949;28;20061;-68
2023/05/23 02:47:43;;;;;;;15.95;8.50;;;15.90;99.90;;;;;;5010365;28;20524;-68
2023/05/23 02:50:10;;;;;;;14.25;8.70;;;15.80;99.90;;;;;;5011008;28;20038;-67
2023/05/23 02:52:36;;;;;;;15.75;8.82;;;15.90;99.90;;;;;;5010189;28;20054;-67
2023/05/23 02:55:02;;;;;;;16.88;8.88;;;15.90;99.90;;;;;;5011004;28;20062;-67
2023/05/23 02:57:28;;;;;;;14.13;8.35;;;15.90;99.90;;;;;;5011016;28;20494;-68
2023/05/23 02:59:54;;;;;;;12.97;8.70;;;15.90;99.90;;;;;;4993132;28;20037;-67
2023/05/23 03:02:20;;;;;;;15.00;8.93;;;15.90;99.90;;;;;;5012178;28;20275;-67
2023/05/23 03:04:47;;;;;;;15.33;9.50;;;15.90;99.90;;;;;;5014614;28;20308;-67
2023/05/23 03:07:14;;;;;;;12.50;9.30;;;15.80;99.90;;;;;;5014158;28;20450;-68
2023/05/23 03:09:39;;;;;;;;;;;15.80;99.90;;;;;;5015270;28;20034;-67
2023/05/23 03:12:06;;;;;;;17.27;9.13;;;15.80;99.90;;;;;;5014438;28;19905;-67
2023/05/23 03:14:32;;;;;;;17.55;9.90;;;15.80;99.90;;;;;;5013521;28;20090;-67
2023/05/23 03:16:59;;;;;;;19.08;9.60;;;15.80;99.90;;;;;;5014604;28;20022;-67
2023/05/23 03:19:25;;;;;;;16.38;9.98;;;15.70;99.90;;;;;;5014580;28;20037;-67
2023/05/23 03:21:51;;;;;;;17.77;9.90;;;15.70;99.90;;;;;;5014184;28;20022;-67
2023/05/23 03:24:17;;;;;;;19.50;10.07;;;15.70;99.90;;;;;;5014601;28;20269;-67
2023/05/23 03:26:44;;;;;;;14.55;8.75;;;15.70;99.90;;;;;;5014883;28;20037;-68
2023/05/23 03:29:10;;;;;;;16.48;9.15;;;15.70;99.90;;;;;;4996619;28;20033;-67
2023/05/23 03:31:36;;;;;;;15.45;9.63;;;15.60;99.90;;;;;;5014275;28;20033;-68
2023/05/23 03:34:04;;;;;;;17.20;10.07;;;15.60;99.90;;;;;;5014380;28;20033;-67
2023/05/23 03:36:34;;;;;;;16.48;10.13;;;15.50;99.90;;;;;;5013996;28;20018;-68
2023/05/23 03:39:01;;;;;;;24.20;10.95;;;15.40;99.90;;;;;;5014567;28;20018;-65
2023/05/23 03:41:27;;;;;;;21.05;10.68;;;15.40;99.90;;;;;;4996544;28;20022;-68
2023/05/23 03:43:53;;;;;;;17.83;10.35;;;15.40;99.90;;;;;;5014511;28;20105;-68
2023/05/23 03:46:19;;;;;;;14.67;10.90;;;15.40;99.90;;;;;;5014481;28;20084;-67
2023/05/23 03:48:45;;;;;;;18.85;10.85;;;15.40;99.90;;;;;;5013906;28;20289;-68
2023/05/23 03:51:14;;;;;;;16.60;10.48;;;15.40;99.90;;;;;;5013849;28;20026;-68
2023/05/23 03:53:40;;;;;;;18.27;10.98;;;15.40;99.90;;;;;;5013761;28;20157;-67
2023/05/23 03:56:06;;;;;;;16.20;10.98;;;15.40;99.90;;;;;;5013824;28;20052;-68
2023/05/23 03:58:33;;;;;;;16.50;10.68;;;15.30;99.90;;;;;;5013946;28;20136;-67
2023/05/23 04:01:00;;;;;;;14.57;10.52;;;15.30;99.90;;;;;;5013710;28;20501;-67
2023/05/23 04:03:26;;;;;;;17.70;10.98;;;15.30;99.90;;;;;;5013707;28;20026;-69
2023/05/23 04:05:52;;;;;;;17.55;10.93;;;15.30;99.90;;;;;;5013364;28;20491;-68
2023/05/23 04:08:20;;;;;;;14.32;10.98;;;15.40;99.90;;;;;;5014096;28;20076;-66
2023/05/23 04:10:47;;;;;;;15.15;9.52;;;15.30;99.90;;;;;;5013695;28;20025;-68
2023/05/23 04:13:14;;;;;;;15.73;10.32;;;15.40;99.90;;;;;;5013457;28;20124;-67
2023/05/23 04:15:39;;;;;;;;;;;15.40;99.90;;;;;;5014249;28;20054;-67
2023/05/23 04:18:07;;;;;;;16.35;10.73;;;15.40;99.90;;;;;;5014414;28;19999;-67
2023/05/23 04:20:34;;;;;;;19.55;11.05;;;15.40;99.90;;;;;;5014869;28;20104;-68
2023/05/23 04:23:00;;;;;;;16.52;10.35;;;15.40;99.90;;;;;;4996531;28;20393;-68
2023/05/23 04:25:26;;;;;;;19.30;11.02;;;15.40;99.90;;;;;;5014403;28;20023;-69
2023/05/23 04:27:53;;;;;;;16.85;10.52;;;15.40;99.90;;;;;;4996667;28;20153;-68
2023/05/23 04:30:19;;;;;;;;;;;15.40;99.90;;;;;;4996844;28;20085;-68
2023/05/23 04:32:45;;;;;;;16.25;10.30;;;15.50;99.90;;;;;;5014224;28;19909;-69
2023/05/23 04:35:11;;;;;;;16.25;10.25;;;15.50;99.90;;;;;;5014563;28;20030;-69
2023/05/23 04:37:38;;;;;;;19.40;10.30;;;15.50;99.90;;;;;;4996219;28;20430;-69
2023/05/23 04:40:06;;;;;;;16.10;9.95;;;15.60;99.90;;;;;;5014803;28;20025;-70
2023/05/23 04:42:32;;;;;;;15.95;9.43;;;15.60;99.90;;;;;;5014676;28;20084;-69
2023/05/23 04:44:58;;;;;;;16.13;9.73;;;15.60;99.90;;;;;;5014461;28;20083;-69
2023/05/23 04:47:26;;;;;;;17.10;10.23;;;15.70;99.90;;;;;;5013524;28;20028;-69
2023/05/23 04:49:54;;;;;;;12.98;9.20;;;15.80;99.90;;;;;;5013829;28;20081;-70
2023/05/23 04:52:20;;;;;;;14.70;10.07;;;15.90;99.90;;;;;;5013512;28;20487;-68
2023/05/23 04:54:47;;;;;;;17.27;9.32;;;16.00;99.90;;;;;;5013539;28;20367;-69
2023/05/23 04:57:14;;;;;;;17.20;9.23;;;16.00;99.90;;;;;;5016733;28;20588;-68
2023/05/23 04:59:41;;;;;;;;;;;16.10;99.90;;;;;;5022710;28;20108;-67
2023/05/23 05:02:08;;;;;;;14.77;7.88;;;16.10;99.90;;;;;;5013902;28;20269;-69
2023/05/23 05:04:35;;;;;;;12.30;7.57;;;16.50;99.90;;;;;;5013617;28;20065;-69
2023/05/23 05:07:02;;;;;;;;;;;17.40;99.90;;;;;;5013602;28;20132;-66
2023/05/23 05:09:30;;;;;;;10.65;6.43;;;17.90;99.90;;;;;;5013251;28;20362;-69
2023/05/23 05:11:56;;;;;;;11.32;5.93;;;18.80;99.90;;;;;;5012726;28;20025;-69
2023/05/23 05:14:22;;;;;;;;;;;19.60;99.90;;;;;;5012860;28;20382;-70
2023/05/23 05:16:49;;;;;;;15.43;6.88;;;20.00;99.90;;;;;;5012966;28;19905;-69
2023/05/23 05:19:15;;;;;;;;;;;20.10;99.90;;;;;;5013568;28;20188;-69
2023/05/23 05:21:41;;;;;;;15.93;6.13;;;20.30;99.90;;;;;;5013363;28;20381;-69
2023/05/23 05:24:08;;;;;;;8.20;5.40;;;20.10;99.90;;;;;;5013088;28;20064;-69
2023/05/23 05:26:35;;;;;;;9.73;5.28;;;19.60;99.90;;;;;;5013005;28;20030;-69
2023/05/23 05:29:01;;;;;;;10.35;5.88;;;19.60;99.90;;;;;;4995081;28;20026;-69
2023/05/23 05:31:28;;;;;;;9.10;5.90;;;19.30;99.90;;;;;;4994562;28;20030;-71
2023/05/23 05:33:54;;;;;;;12.13;5.50;;;19.90;99.90;;;;;;5011977;28;20085;-68
2023/05/23 05:36:21;;;;;;;13.82;5.80;;;20.60;99.90;;;;;;5012029;28;20095;-70
2023/05/23 05:38:47;;;;;;;10.52;4.75;;;21.00;99.90;;;;;;5011978;28;20474;-70
2023/05/23 05:41:13;;;;;;;11.98;5.53;;;20.70;99.90;;;;;;5012161;28;20108;-70
2023/05/23 05:43:39;;;;;;;7.55;5.03;;;21.10;99.90;;;;;;5012055;28;20022;-69
2023/05/23 05:46:05;;;;;;;11.88;5.20;;;21.10;99.90;;;;;;5012450;28;20026;-69
2023/05/23 05:48:31;;;;;;;11.60;4.90;;;21.20;99.90;;;;;;5011966;28;20496;-71
2023/05/23 05:50:59;;;;;;;12.57;4.82;;;21.40;99.90;;;;;;5011312;28;20026;-69
2023/05/23 05:53:26;;;;;;;7.63;4.65;;;21.20;99.90;;;;;;5011347;28;20045;-71
2023/05/23 05:55:53;;;;;;;8.80;4.53;;;21.80;99.90;;;;;;5011596;28;20447;-73
2023/05/23 05:58:19;;;;;;;13.40;5.03;;;22.30;99.90;;;;;;5011206;28;20022;-72
2023/05/23 06:00:47;;;;;;;9.55;4.95;;;22.40;99.90;;;;;;5010920;28;20411;-69
2023/05/23 06:03:14;;;;;;;8.82;4.60;;;22.00;99.90;;;;;;5011169;28;20018;-69
2023/05/23 06:05:41;;;;;;;9.80;4.60;;;23.00;99.90;;;;;;5011084;28;20037;-70
2023/05/23 06:08:07;;;;;;;8.25;4.78;;;22.30;99.90;;;;;;5010954;28;20091;-67
2023/05/23 06:10:33;;;;;;;9.45;4.50;;;23.10;99.90;;;;;;5011597;28;20168;-68
2023/05/23 06:12:59;;;;;;;11.50;5.22;;;22.50;99.90;;;;;;5011570;28;20053;-69
2023/05/23 06:15:25;;;;;;;13.55;4.68;;;22.10;99.90;;;;;;4993027;28;20125;-68
2023/05/23 06:17:52;;;;;;;9.55;4.43;;;23.30;99.90;;;;;;5011249;28;20037;-69
2023/05/23 06:20:18;;;;;;;10.68;4.10;;;23.50;99.90;;;;;;5011702;28;20022;-69
2023/05/23 06:22:44;;;;;;;11.40;4.32;;;24.30;99.90;;;;;;5011258;28;20026;-67
2023/05/23 06:25:10;;;;;;;11.60;4.68;;;23.60;99.90;;;;;;5011380;28;20084;-66
2023/05/23 06:27:37;;;;;;;9.20;4.43;;;24.40;99.90;;;;;;5011761;28;20101;-68
2023/05/23 06:30:06;;;;;;;9.23;4.03;;;24.50;99.90;;;;;;5011390;28;20376;-69
2023/05/23 06:32:32;;;;;;;11.48;4.30;;;25.10;99.90;;;;;;5011901;28;20030;-68
2023/05/23 06:34:58;;;;;;;13.52;4.13;;;25.60;99.90;;;;;;5011679;28;20085;-69
2023/05/23 06:37:24;;;;;;;8.15;3.85;;;26.60;99.90;;;;;;5011978;28;20028;-70
2023/05/23 06:39:50;;;;;;;9.20;3.60;;;25.80;99.90;;;;;;5014934;28;20053;-67
2023/05/23 06:42:16;;;;;;;9.10;3.97;;;25.70;99.90;;;;;;5015212;28;20018;-69
2023/05/23 06:44:43;;;;;;;7.25;3.45;;;25.80;99.90;;;;;;5015017;28;20088;-70
2023/05/23 06:47:09;;;;;;;7.55;3.33;;;26.80;99.90;;;;;;5014735;28;20378;-70
2023/05/23 06:49:35;;;;;;;7.00;3.83;;;27.00;99.90;;;;;;5015014;28;20030;-70
2023/05/23 06:52:01;;;;;;;10.90;4.05;;;26.10;99.90;;;;;;5014624;28;20033;-68
2023/05/23 06:54:27;;;;;;;8.27;3.47;;;24.60;99.90;;;;;;5015202;28;20037;-69
2023/05/23 06:56:53;;;;;;;7.95;3.20;;;25.30;99.90;;;;;;5015304;28;20025;-68
2023/05/23 06:59:19;;;;;;;7.95;3.00;;;25.00;99.90;;;;;;5015023;28;20026;-68
2023/05/23 07:01:45;;;;;;;7.95;2.60;;;25.60;99.90;;;;;;5014655;28;20022;-68
2023/05/23 07:04:11;;;;;;;11.63;3.00;;;26.60;99.90;;;;;;5014943;28;20026;-69
2023/05/23 07:06:38;;;;;;;8.93;2.80;;;26.60;99.90;;;;;;5014862;28;20042;-68
2023/05/23 07:09:04;;;;;;;8.77;2.65;;;26.90;99.90;;;;;;5015023;28;20065;-68
2023/05/23 07:11:30;;;;;;;;;;;28.10;99.90;;;;;;5015273;28;20026;-69
2023/05/23 07:13:56;;;;;;;6.72;2.75;;;26.10;99.90;;;;;;5014608;28;19961;-70
2023/05/23 07:16:22;;;;;;;11.07;3.00;;;27.00;99.90;;;;;;5015279;28;20022;-69
2023/05/23 07:18:48;;;;;;;7.55;2.63;;;28.20;99.90;;;;;;5014705;28;20505;-68
2023/05/23 07:21:14;;;;;;;9.60;3.00;;;29.10;99.90;;;;;;5014497;28;20039;-69
2023/05/23 07:23:40;;;;;;;9.55;2.85;;;28.90;99.90;;;;;;5014728;28;20034;-68
2023/05/23 07:26:08;;;;;;;11.27;3.40;;;28.00;99.90;;;;;;5014361;28;20075;-68
2023/05/23 07:28:36;;;;;;;9.48;2.60;;;28.00;99.90;;;;;;5014158;28;20025;-69
2023/05/23 07:31:02;;;;;;;11.60;2.78;;;28.40;99.90;;;;;;5014110;28;20037;-70
2023/05/23 07:33:28;;;;;;;7.32;3.58;;;28.10;99.90;;;;;;5014223;28;20038;-70
2023/05/23 07:35:54;;;;;;;12.68;2.90;;;28.00;99.90;;;;;;5014629;28;20022;-70
2023/05/23 07:38:20;;;;;;;8.68;3.22;;;28.10;99.90;;;;;;5013636;28;20030;-69
2023/05/23 07:40:46;;;;;;;;;;;27.30;99.90;;;;;;5014397;28;20096;-70
2023/05/23 07:43:12;;;;;;;17.05;3.63;;;27.50;99.90;;;;;;4996190;28;19920;-69
2023/05/23 07:45:38;;;;;;;13.50;3.97;;;27.40;99.90;;;;;;5014153;28;20030;-70
2023/05/23 07:48:04;;;;;;;10.05;3.75;;;27.60;99.90;;;;;;5012879;28;20044;-70
2023/05/23 07:50:30;;;;;;;7.90;3.20;;;27.70;99.90;;;;;;5013092;28;20045;-69
2023/05/23 07:52:56;;;;;;;10.65;4.40;;;27.60;99.90;;;;;;5012652;28;20125;-69
2023/05/23 07:55:23;;;;;;;10.88;3.97;;;27.70;99.90;;;;;;5012884;28;20144;-68
2023/05/23 07:57:50;;;;;;;17.40;4.28;;;27.60;99.90;;;;;;5012721;28;20417;-69
2023/05/23 08:00:16;;;;;;;9.38;3.65;;;27.50;99.90;;;;;;5013269;28;20059;-69
2023/05/23 08:02:42;;;;;;;14.88;4.43;;;27.20;99.90;;;;;;5013272;28;20056;-70
2023/05/23 08:05:09;;;;;;;11.65;4.25;;;27.20;99.90;;;;;;5013056;28;20371;-68
2023/05/23 08:07:35;;;;;;;15.52;4.80;;;27.30;99.90;;;;;;5012943;28;20038;-68
2023/05/23 08:10:01;;;;;;;11.43;4.28;;;27.10;99.90;;;;;;5013148;28;20018;-67
2023/05/23 08:12:27;;;;;;;9.63;4.30;;;27.30;99.90;;;;;;5013011;28;20037;-70
2023/05/23 08:14:53;;;;;;;14.23;4.43;;;27.30;99.90;;;;;;5013601;28;20029;-69
2023/05/23 08:17:19;;;;;;;12.70;4.53;;;27.20;99.90;;;;;;5013331;28;20053;-69
2023/05/23 08:19:45;;;;;;;10.13;4.25;;;27.40;99.90;;;;;;5013965;28;20037;-68
2023/05/23 08:22:11;;;;;;;;;;;27.10;99.90;;;;;;5014028;28;20034;-70
2023/05/23 08:24:38;;;;;;;13.80;4.35;;;27.20;99.90;;;;;;5013767;28;20004;-70
2023/05/23 08:27:06;;;;;;;9.02;4.03;;;27.40;99.90;;;;;;5013291;28;20037;-69
2023/05/23 08:29:34;;;;;;;8.77;4.30;;;27.40;99.90;;;;;;4995379;28;20036;-70
2023/05/23 08:32:00;;;;;;;9.13;4.53;;;27.10;99.90;;;;;;5013660;28;20029;-69
2023/05/23 08:34:26;;;;;;;8.82;4.07;;;27.20;99.90;;;;;;5013259;28;20149;-68
2023/05/23 08:36:52;;;;;;;13.15;4.70;;;26.30;99.90;;;;;;5013072;28;20077;-68
2023/05/23 08:39:18;;;;;;;10.63;4.60;;;26.20;99.90;;;;;;5013371;28;20022;-68
2023/05/23 08:41:45;;;;;;;8.95;4.13;;;26.50;99.90;;;;;;5012591;28;20026;-69
2023/05/23 08:44:11;;;;;;;;;;;27.00;99.90;;;;;;5012049;28;20038;-69
2023/05/23 08:46:44;;;;;;;8.95;3.83;;;26.70;99.90;;;;;;5012004;28;20306;-67
2023/05/23 08:49:13;;;;;;;14.77;4.65;;;26.70;99.90;;;;;;5012196;28;20038;-67
2023/05/23 08:51:42;;;;;;;10.88;4.18;;;26.80;99.90;;;;;;5012152;28;20034;-70
2023/05/23 08:54:11;;;;;;;8.90;4.10;;;26.30;99.90;;;;;;5012310;28;20478;-68
2023/05/23 08:56:43;;;;;;;12.45;3.70;;;26.80;99.90;;;;;;4995398;28;20120;-69
2023/05/23 08:59:10;;;;;;;9.43;3.42;;;26.60;99.90;;;;;;5012527;28;20481;-69
2023/05/23 09:01:38;;;;;;;8.57;3.30;;;26.60;99.90;;;;;;5011543;28;20048;-70
2023/05/23 09:04:06;;;;;;;9.98;3.50;;;26.40;99.90;;;;;;5012310;28;20038;-70
2023/05/23 09:06:32;;;;;;;10.35;3.67;;;26.50;99.90;;;;;;5012220;28;20081;-69
2023/05/23 09:08:58;;;;;;;14.55;5.90;;;26.30;99.90;;;;;;5012586;28;20451;-69
2023/05/23 09:11:24;;;;;;;9.48;3.40;;;26.20;99.90;;;;;;5012312;28;20056;-69
2023/05/23 09:13:50;;;;;;;;;;;26.10;99.90;;;;;;5012091;28;20038;-69
2023/05/23 09:16:19;;;;;;;;;;;26.00;99.90;;;;;;5011945;28;19980;-68
2023/05/23 09:18:45;;;;;;;8.23;3.42;;;26.00;99.90;;;;;;5011625;28;20222;-68
2023/05/23 09:21:12;;;;;;;10.07;3.55;;;26.00;99.90;;;;;;5014881;28;20022;-68
2023/05/23 09:23:40;;;;;;;13.15;3.65;;;25.90;99.90;;;;;;5016121;28;20025;-68
2023/05/23 09:26:12;;;;;;;10.18;3.60;;;25.30;99.90;;;;;;5011495;28;20037;-68
2023/05/23 09:28:39;;;;;;;8.77;3.67;;;25.30;99.90;;;;;;5012032;28;20030;-66
2023/05/23 09:31:07;;;;;;;11.77;4.85;;;25.50;99.90;;;;;;5016273;28;20449;-67
2023/05/23 09:33:48;;;;;;;11.20;3.95;;;25.40;99.90;;;;;;5015483;28;20129;-69
2023/05/23 09:36:15;;;;;;;7.72;3.70;;;25.50;99.90;;;;;;5011581;28;20026;-69
2023/05/23 09:38:43;;;;;;;6.63;3.70;;;25.60;99.90;;;;;;5011305;28;20030;-70
2023/05/23 09:41:12;;;;;;;10.18;4.35;;;25.60;99.90;;;;;;5011261;28;20018;-70
2023/05/23 09:43:49;;;;;;;10.80;3.63;;;25.40;99.90;;;;;;5011373;28;20056;-69
2023/05/23 09:46:15;;;;;;;;;;;25.10;99.90;;;;;;5012026;28;20029;-69
2023/05/23 09:48:50;;;;;;;9.80;3.95;;;24.40;99.90;;;;;;5011028;28;20365;-69
2023/05/23 09:51:22;;;;;;;7.38;3.80;;;24.10;99.90;;;;;;5022414;28;20021;-69
2023/05/23 09:53:49;;;;;;;15.23;5.13;;;24.30;99.90;;;;;;5031170;28;20041;-69
2023/05/23 09:56:19;;;;;;;15.38;4.90;;;23.90;99.90;;;;;;5031068;28;20083;-69
2023/05/23 09:58:48;;;;;;;12.82;5.45;;;24.50;99.90;;;;;;5030800;28;20029;-69
2023/05/23 10:01:15;;;;;;;10.02;5.00;;;24.90;99.90;;;;;;5014268;28;20018;-70
2023/05/23 10:03:49;;;;;;;11.60;4.97;;;24.50;99.90;;;;;;4993101;28;20033;-69
2023/05/23 10:06:27;;;;;;;9.20;5.07;;;24.60;99.90;;;;;;5011135;28;20038;-69
2023/05/23 10:09:04;;;;;;;10.10;4.70;;;24.50;99.90;;;;;;4993469;28;20442;-69
2023/05/23 10:11:33;;;;;;;8.70;4.25;;;24.20;99.90;;;;;;5012416;28;20113;-70
2023/05/23 10:14:05;;;;;;;16.25;4.25;;;24.20;99.90;;;;;;5015215;28;20113;-70
2023/05/23 10:16:49;;;;;;;14.00;3.92;;;24.10;99.90;;;;;;5015235;28;20068;-71
2023/05/23 10:19:53;;;;;;;8.00;4.05;;;23.90;99.90;;;;;;5014919;28;20017;-68
2023/05/23 10:22:20;;;;;;;7.32;4.07;;;23.60;99.90;;;;;;4915761;29;20029;-70
2023/05/23 10:24:48;;;;;;;9.68;4.18;;;23.70;99.90;;;;;;4916292;29;20111;-69
2023/05/23 10:27:14;;;;;;;13.90;4.55;;;23.60;99.90;;;;;;4916122;29;20060;-70
2023/05/23 10:29:42;;;;;;;7.65;3.70;;;23.40;99.90;;;;;;4919920;29;20136;-67
2023/05/23 10:32:09;;;;;;;11.27;4.03;;;23.70;99.90;;;;;;4935642;29;20040;-72
2023/05/23 10:34:55;;;;;;;10.13;3.90;;;23.40;99.90;;;;;;4936176;29;20453;-71
2023/05/23 10:37:48;;;;;;;9.02;3.88;;;22.90;99.90;;;;;;4935353;29;20103;-69
2023/05/23 10:40:25;;;;;;;13.93;4.13;;;23.40;99.90;;;;;;4921304;29;20043;-70
2023/05/23 10:42:55;;;;;;;8.88;4.07;;;23.40;99.90;;;;;;4935654;29;20457;-70
2023/05/23 10:45:22;;;;;;;10.75;5.00;;;23.50;99.90;;;;;;4935665;29;20100;-70
2023/05/23 10:47:51;;;;;;;10.90;4.05;;;23.20;99.90;;;;;;4942220;29;20038;-69
2023/05/23 10:50:35;;;;;;;9.35;3.97;;;23.20;99.90;;;;;;4954003;29;20083;-70
2023/05/23 10:53:03;;;;;;;7.93;4.05;;;23.50;99.90;;;;;;4954369;29;20471;-71
2023/05/23 10:55:34;;;;;;;9.38;4.28;;;23.30;99.90;;;;;;4954532;29;20123;-69
2023/05/23 10:58:21;;;;;;;10.80;4.03;;;23.30;99.90;;;;;;4990651;28;20030;-70
2023/05/23 11:01:00;;;;;;;12.50;3.97;;;23.10;99.90;;;;;;5014449;28;20025;-71
2023/05/23 11:03:35;;;;;;;12.60;4.45;;;23.30;99.90;;;;;;5014232;28;20461;-70
2023/05/23 11:06:03;;;;;;;10.82;4.50;;;23.30;99.90;;;;;;5014270;28;20532;-70
2023/05/23 11:08:37;;;;;;;12.25;4.00;;;23.50;99.90;;;;;;5014593;28;20510;-71
2023/05/23 11:11:04;;;;;;;11.57;4.32;;;23.20;99.90;;;;;;5014153;28;20112;-70
2023/05/23 11:13:54;;;;;;;11.63;3.95;;;23.50;99.90;;;;;;5013999;28;20043;-70
2023/05/23 11:16:31;;;;;;;10.23;3.97;;;23.50;99.90;;;;;;5005666;28;20042;-69
2023/05/23 11:19:19;;;;;;;12.93;3.70;;;23.40;99.90;;;;;;5014544;28;20026;-69
2023/05/23 11:21:48;;;;;;;9.15;3.65;;;23.20;99.90;;;;;;5014095;28;20438;-70
2023/05/23 11:24:14;;;;;;;12.70;4.38;;;23.30;99.90;;;;;;5013498;28;20499;-71
2023/05/23 11:26:58;;;;;;;8.95;3.85;;;23.50;99.90;;;;;;5015048;28;20057;-70
2023/05/23 11:29:26;;;;;;;13.13;4.03;;;23.50;99.90;;;;;;5014503;28;20021;-68
2023/05/23 11:31:52;;;;;;;11.95;4.30;;;23.60;99.90;;;;;;5014118;28;20164;-71
2023/05/23 11:34:20;;;;;;;8.30;4.00;;;23.80;99.90;;;;;;5014419;28;20466;-69
2023/05/23 11:36:46;;;;;;;9.00;4.05;;;23.90;99.90;;;;;;5014145;28;20094;-69
2023/05/23 11:39:14;;;;;;;7.78;3.88;;;23.90;99.90;;;;;;5014374;28;20465;-70
2023/05/23 11:41:42;;;;;;;12.98;4.18;;;23.70;99.90;;;;;;5014023;28;20044;-68
2023/05/23 11:44:12;;;;;;;11.15;3.40;;;23.70;99.90;;;;;;5014509;28;20203;-69
2023/05/23 11:46:39;;;;;;;10.80;3.47;;;23.60;99.90;;;;;;5014165;28;20069;-67
2023/05/23 11:49:11;;;;;;;9.65;3.67;;;22.90;99.90;;;;;;5013967;28;20022;-67
2023/05/23 11:51:38;;;;;;;11.35;3.00;;;23.10;99.90;;;;;;4995627;28;20125;-70
2023/05/23 11:54:05;;;;;;;9.43;3.22;;;23.30;99.90;;;;;;5014025;28;20459;-68
2023/05/23 11:56:37;;;;;;;9.45;3.15;;;23.10;99.90;;;;;;5013910;28;20037;-69
2023/05/23 11:59:03;;;;;;;10.80;3.05;;;22.80;99.90;;;;;;5014333;28;20052;-68
2023/05/23 12:01:30;;;;;;;11.80;3.40;;;22.70;99.90;;;;;;5013718;28;20076;-69
2023/05/23 12:03:56;;;;;;;14.27;3.88;;;23.10;99.90;;;;;;5014514;28;20030;-70
2023/05/23 12:06:23;;;;;;;11.32;4.00;;;23.30;99.90;;;;;;5014702;28;20074;-69
2023/05/23 12:08:51;;;;;;;9.23;3.33;;;23.20;99.90;;;;;;5014405;28;20026;-68
2023/05/23 12:11:17;;;;;;;15.57;3.50;;;23.40;99.90;;;;;;5014834;28;20022;-68
2023/05/23 12:13:58;;;;;;;20.50;3.58;;;23.40;99.90;;;;;;4996865;28;20100;-68
2023/05/23 12:16:24;;;;;;;12.57;4.00;;;23.40;99.90;;;;;;4996432;28;20363;-70
2023/05/23 12:18:52;;;;;;;10.48;3.63;;;23.20;99.90;;;;;;4996730;28;20030;-68
2023/05/23 12:21:19;;;;;;;14.95;4.03;;;23.00;99.90;;;;;;5014268;28;20033;-69
2023/05/23 12:23:45;;;;;;;12.73;3.60;;;22.90;99.90;;;;;;5014020;28;20061;-69
2023/05/23 12:26:11;;;;;;;9.60;4.13;;;23.00;99.90;;;;;;5013533;28;20037;-70
2023/05/23 12:28:41;;;;;;;13.43;3.80;;;23.10;99.90;;;;;;5014109;28;20030;-70
2023/05/23 12:31:17;;;;;;;9.60;3.42;;;22.90;99.90;;;;;;5014155;28;20109;-69
2023/05/23 12:33:45;;;;;;;12.52;3.22;;;22.90;99.90;;;;;;5014433;28;20393;-70
2023/05/23 12:36:11;;;;;;;15.15;3.72;;;22.90;99.90;;;;;;5014015;28;20032;-70
2023/05/23 12:38:39;;;;;;;11.75;3.88;;;22.90;99.90;;;;;;5014116;28;20037;-71
2023/05/23 12:41:12;;;;;;;17.55;4.35;;;23.20;99.90;;;;;;5014354;28;20053;-69
2023/05/23 12:43:59;;;;;;;19.92;4.25;;;23.10;99.90;;;;;;5014121;28;20399;-71
2023/05/23 12:46:26;;;;;;;15.15;4.35;;;23.10;99.90;;;;;;5013510;28;20040;-69
2023/05/23 12:48:53;;;;;;;14.20;4.20;;;23.20;99.90;;;;;;5014046;28;20033;-71